Time;durP1;ratioP1;P1;durP2;ratioP2;P2;SDS_P1;SDS_P2;PMS_P1;PMS_P2;Temp;Humidity;BMP_temperature;BMP_pressure;BME280_temperature;BME280_humidity;BME280_pressure;Samples;Min_cycle;Max_cycle;Signal;HPM_P1;HPM_P2
2021/10/26 00:01:58;;;;;;;;;11.67;6.67;;;;;13.67;73.83;101802.59;5059903;28;48034;-78
2021/10/26 00:04:23;;;;;;;;;9.33;8.00;;;;;13.67;73.79;101795.53;5071682;28;45796;-77
2021/10/26 00:06:49;;;;;;;;;7.67;7.67;;;;;13.65;73.40;101794.63;5059126;28;45457;-77
2021/10/26 00:09:15;;;;;;;;;6.00;6.00;;;;;13.62;73.39;101790.16;5073234;28;66119;-77
2021/10/26 00:11:41;;;;;;;;;11.00;6.67;;;;;13.60;73.39;101794.56;5078513;28;45318;-77
2021/10/26 00:14:06;;;;;;;;;6.33;6.33;;;;;13.59;73.69;101791.88;5079604;28;45401;-77
2021/10/26 00:16:32;;;;;;;;;5.00;5.00;;;;;13.58;73.82;101788.34;5078539;28;57293;-77
2021/10/26 00:18:57;;;;;;;;;8.00;7.00;;;;;13.57;73.80;101799.81;5078612;28;62567;-77
2021/10/26 00:21:22;;;;;;;;;7.00;7.00;;;;;13.55;73.52;101804.22;5060970;28;45542;-76
2021/10/26 00:23:48;;;;;;;;;7.00;7.00;;;;;13.53;73.51;101802.38;5078732;28;49451;-78
2021/10/26 00:26:14;;;;;;;;;7.00;7.00;;;;;13.49;73.56;101803.25;5046243;28;45468;-77
2021/10/26 00:28:39;;;;;;;;;10.33;7.00;;;;;13.49;73.56;101805.88;5071544;28;58813;-77
2021/10/26 00:31:05;;;;;;;;;7.00;5.67;;;;;13.42;73.84;101798.69;5058551;28;45359;-76
2021/10/26 00:33:30;;;;;;;;;7.33;6.00;;;;;13.48;73.91;101812.06;5043761;28;54566;-77
2021/10/26 00:35:55;;;;;;;;;6.33;6.33;;;;;13.48;74.08;101807.66;5075402;28;59581;-77
2021/10/26 00:38:21;;;;;;;;;6.00;5.00;;;;;13.49;73.32;101814.75;5078114;28;61921;-77
2021/10/26 00:40:47;;;;;;;;;6.00;5.67;;;;;13.48;73.57;101815.63;5078814;28;45489;-77
2021/10/26 00:43:12;;;;;;;;;12.00;7.00;;;;;13.44;73.58;101808.47;5078857;28;45288;-77
2021/10/26 00:45:38;;;;;;;;;5.00;4.33;;;;;13.46;73.67;101812.03;5078897;28;45299;-77
2021/10/26 00:48:04;;;;;;;;;9.67;5.67;;;;;13.47;73.87;101819.13;5078672;28;47190;-77
2021/10/26 00:50:29;;;;;;;;;8.33;7.00;;;;;13.47;73.87;101821.75;5078741;28;45245;-77
2021/10/26 00:52:54;;;;;;;;;6.67;5.33;;;;;13.39;73.80;101809.28;5071140;28;57911;-77
2021/10/26 00:55:20;;;;;;;;;6.00;4.00;;;;;13.43;73.52;101816.41;5057649;28;61529;-76
2021/10/26 00:57:46;;;;;;;;;7.67;6.00;;;;;13.39;73.66;101818.13;5057840;28;55124;-78
2021/10/26 01:00:12;;;;;;;;;4.67;4.00;;;;;13.42;73.58;101826.09;5040285;28;45287;-77
2021/10/26 01:02:37;;;;;;;;;5.00;5.00;;;;;13.36;73.91;101823.38;5064709;28;45241;-77
2021/10/26 01:05:04;;;;;;;;;12.00;6.67;;;;;13.38;73.49;101836.69;5064625;28;45849;-77
2021/10/26 01:07:30;;;;;;;;;6.67;5.00;;;;;13.33;73.12;101831.28;5055860;28;47363;-77
2021/10/26 01:09:55;;;;;;;;;9.00;6.67;;;;;13.31;73.21;101838.31;5060230;28;45328;-77
2021/10/26 01:12:21;;;;;;;;;6.00;4.00;;;;;13.26;73.16;101829.38;5060498;28;45976;-76
2021/10/26 01:14:46;;;;;;;;;6.00;4.67;;;;;13.22;72.94;101831.13;5078621;28;45364;-77
2021/10/26 01:17:12;;;;;;;;;6.33;4.00;;;;;13.14;73.16;101819.44;5042902;28;63974;-77
2021/10/26 01:19:45;;;;;;;;;4.00;4.00;;;;;13.18;72.99;101829.25;5077142;28;45358;-77
2021/10/26 01:22:10;;;;;;;;;5.67;5.00;;;;;13.17;73.30;101829.22;5077314;28;45292;-77
2021/10/26 01:24:36;;;;;;;;;4.00;4.00;;;;;13.07;73.63;101814.94;5058700;28;52766;-77
2021/10/26 01:27:01;;;;;;;;;6.33;4.33;;;;;13.13;73.09;101822.97;5077151;28;64995;-77
2021/10/26 01:29:27;;;;;;;;;6.00;3.00;;;;;13.12;73.44;101829.16;5064584;28;51407;-77
2021/10/26 01:31:52;;;;;;;;;5.00;5.00;;;;;13.10;73.46;101829.13;5064912;28;45351;-76
2021/10/26 01:34:18;;;;;;;;;4.00;4.00;;;;;13.09;73.36;101827.31;5059719;28;45553;-77
2021/10/26 01:36:44;;;;;;;;;4.00;4.00;;;;;13.08;73.42;101828.19;5057807;28;47656;-77
2021/10/26 01:39:09;;;;;;;;;4.00;4.00;;;;;13.06;73.20;101834.34;5077545;28;60236;-76
2021/10/26 01:41:34;;;;;;;;;5.33;4.33;;;;;13.05;73.16;101835.22;5077475;28;57305;-76
2021/10/26 01:44:00;;;;;;;;;4.00;4.00;;;;;12.97;73.19;101835.09;5077287;28;59551;-77
2021/10/26 01:46:25;;;;;;;;;6.33;4.00;;;;;12.99;73.07;101846.59;5078000;28;48166;-77
2021/10/26 01:48:51;;;;;;;;;3.33;3.33;;;;;12.95;72.67;101846.53;5077213;28;60740;-76
2021/10/26 01:51:16;;;;;;;;;4.00;4.00;;;;;12.91;73.05;101842.03;5057568;28;45149;-77
2021/10/26 01:53:42;;;;;;;;;3.00;3.00;;;;;12.88;73.03;101834.03;5039587;28;45360;-77
2021/10/26 01:56:08;;;;;;;;;5.33;4.00;;;;;12.82;72.79;101834.81;5057446;28;47112;-78
2021/10/26 01:58:33;;;;;;;;;7.00;4.00;;;;;12.82;72.95;101842.75;5069948;28;46184;-77
2021/10/26 02:00:58;;;;;;;;;3.00;3.00;;;;;12.81;72.95;101835.69;5077671;28;45621;-77
2021/10/26 02:03:25;;;;;;;;;5.00;3.67;;;;;12.78;72.84;101833.88;5076972;28;59684;-77
2021/10/26 02:05:50;;;;;;;;;4.00;4.00;;;;;12.75;72.64;101839.13;5057223;28;46802;-77
2021/10/26 02:08:16;;;;;;;;;3.00;3.00;;;;;12.72;73.04;101836.41;5056668;28;64735;-77
2021/10/26 02:10:41;;;;;;;;;3.00;3.00;;;;;12.70;73.00;101831.94;5056957;28;50912;-77
2021/10/26 02:13:07;;;;;;;;;5.00;3.00;;;;;12.68;72.92;101829.28;5067505;28;49473;-77
2021/10/26 02:15:32;;;;;;;;;3.00;3.00;;;;;12.66;72.77;101825.69;5077115;28;47677;-77
2021/10/26 02:17:57;;;;;;;;;2.33;2.33;;;;;12.65;72.84;101828.31;5038703;28;45455;-77
2021/10/26 02:20:23;;;;;;;;;2.67;2.67;;;;;12.64;73.02;101834.50;5056855;28;54583;-77
2021/10/26 02:22:48;;;;;;;;;3.67;3.33;;;;;12.63;73.21;101833.59;5056517;28;51172;-77
2021/10/26 02:25:14;;;;;;;;;3.33;3.00;;;;;12.63;72.93;101830.06;5056421;28;56125;-77
2021/10/26 02:27:39;;;;;;;;;4.00;2.33;;;;;12.62;73.25;101826.50;5068823;28;45310;-77
2021/10/26 02:30:05;;;;;;;;;2.33;2.00;;;;;12.62;73.19;101830.91;5058666;28;45191;-77
2021/10/26 02:32:30;;;;;;;;;3.33;2.33;;;;;12.61;73.18;101835.31;5064284;28;45478;-77
2021/10/26 02:34:56;;;;;;;;;2.67;2.67;;;;;12.63;73.24;101835.38;5074797;28;48159;-77
2021/10/26 02:37:21;;;;;;;;;2.00;2.00;;;;;12.58;73.50;101820.25;5077285;28;45320;-77
2021/10/26 02:39:47;;;;;;;;;2.33;1.33;;;;;12.64;73.06;101826.53;5071533;28;45281;-78
2021/10/26 02:42:12;;;;;;;;;2.00;2.00;;;;;12.62;72.96;101829.13;5056766;28;54219;-77
2021/10/26 02:44:37;;;;;;;;;1.00;1.00;;;;;12.59;73.11;101823.81;5056218;28;61667;-77
2021/10/26 02:47:03;;;;;;;;;2.00;2.00;;;;;12.62;73.53;101833.53;5059449;28;49058;-77
2021/10/26 02:49:28;;;;;;;;;1.67;1.67;;;;;12.63;73.26;101833.59;5077203;28;45477;-77
2021/10/26 02:51:54;;;;;;;;;2.00;2.00;;;;;12.63;73.17;101832.72;5076501;28;52827;-77
2021/10/26 02:54:19;;;;;;;;;4.00;2.00;;;;;12.65;73.15;101836.28;5076824;28;46535;-77
2021/10/26 02:56:45;;;;;;;;;1.00;1.00;;;;;12.64;73.25;101843.31;5076819;28;45348;-78
2021/10/26 02:59:10;;;;;;;;;1.33;1.33;;;;;12.66;73.29;101848.66;5077021;28;45510;-77
2021/10/26 03:01:36;;;;;;;;;1.00;1.00;;;;;12.65;73.27;101838.91;5076798;28;45556;-77
2021/10/26 03:04:01;;;;;;;;;2.00;1.00;;;;;12.67;73.48;101856.63;5070506;28;55313;-77
2021/10/26 03:06:26;;;;;;;;;4.67;1.00;;;;;12.67;73.44;101856.63;5076519;28;50387;-76
2021/10/26 03:08:52;;;;;;;;;2.33;1.67;;;;;12.66;73.26;101851.28;5076095;28;52917;-77
2021/10/26 03:11:18;;;;;;;;;1.33;1.33;;;;;12.62;73.13;101850.34;5076804;28;45470;-77
2021/10/26 03:13:43;;;;;;;;;2.00;2.00;;;;;12.66;73.49;101853.94;5076567;28;45378;-78
2021/10/26 03:16:08;;;;;;;;;1.33;1.33;;;;;12.66;73.53;101849.53;5076221;28;51840;-77
2021/10/26 03:18:34;;;;;;;;;2.67;1.00;;;;;12.66;73.37;101852.19;5056930;28;45226;-77
2021/10/26 03:20:59;;;;;;;;;2.33;1.67;;;;;12.70;73.32;101858.44;5060361;28;47728;-77
2021/10/26 03:23:25;;;;;;;;;1.33;1.00;;;;;12.71;73.42;101857.56;5064534;28;47235;-77
2021/10/26 03:25:50;;;;;;;;;5.67;2.00;;;;;12.73;73.39;101855.84;5076215;28;45333;-77
2021/10/26 03:28:16;;;;;;;;;3.00;2.00;;;;;12.73;73.41;101853.19;5051028;28;45343;-77
2021/10/26 03:30:42;;;;;;;;;3.00;1.67;;;;;12.72;73.67;101840.81;5056514;28;45202;-76
2021/10/26 03:33:07;;;;;;;;;12.00;2.00;;;;;12.71;73.54;101841.69;5059286;28;46887;-77
2021/10/26 03:35:33;;;;;;;;;3.00;2.00;;;;;12.67;72.93;101839.81;5076188;28;45470;-77
2021/10/26 03:38:00;;;;;;;;;2.33;1.00;;;;;12.70;73.07;101850.50;5076055;28;55094;-77
2021/10/26 03:40:25;;;;;;;;;2.33;1.00;;;;;12.66;73.04;101859.25;5076408;28;45607;-77
2021/10/26 03:42:51;;;;;;;;;2.00;2.00;;;;;12.63;72.84;101856.56;5075639;28;46566;-77
2021/10/26 03:45:16;;;;;;;;;1.67;1.67;;;;;12.58;72.66;101865.31;5065413;28;50784;-77
2021/10/26 03:47:43;;;;;;;;;2.67;2.67;;;;;12.54;72.64;101860.81;5058859;28;45688;-77
2021/10/26 03:50:09;;;;;;;;;2.00;2.00;;;;;12.52;72.47;101862.53;5059771;28;45553;-76
2021/10/26 03:52:34;;;;;;;;;2.67;2.67;;;;;12.46;72.72;101851.78;5070633;28;47271;-76
2021/10/26 03:54:59;;;;;;;;;3.33;2.00;;;;;12.47;72.81;101860.66;5058846;28;58484;-77
2021/10/26 03:57:25;;;;;;;;;2.67;1.33;;;;;12.46;72.95;101864.16;5065730;28;52403;-77
2021/10/26 03:59:50;;;;;;;;;2.00;2.00;;;;;12.43;72.77;101865.00;5079830;28;45521;-77
2021/10/26 04:02:39;;;;;;;;;3.00;2.00;;;;;12.36;72.64;101863.09;5078632;28;56466;-77
2021/10/26 04:05:13;;;;;;;;;1.33;1.33;;;;;12.35;72.79;101863.03;5064563;28;45341;-77
2021/10/26 04:08:18;;;;;;;;;3.67;2.00;;;;;12.36;72.38;101872.78;5059344;28;45471;-77
2021/10/26 04:10:43;;;;;;;;;1.67;1.67;;;;;12.32;72.56;101874.50;5043246;28;45403;-77
2021/10/26 04:13:08;;;;;;;;;2.00;2.00;;;;;12.20;72.49;101850.41;5064382;28;48082;-77
2021/10/26 04:15:34;;;;;;;;;4.00;2.00;;;;;12.24;72.55;101866.38;5073151;28;45350;-77
2021/10/26 04:17:59;;;;;;;;;5.33;2.67;;;;;12.23;72.45;101872.53;5077542;28;55494;-77
2021/10/26 04:20:25;;;;;;;;;1.33;1.33;;;;;12.19;72.45;101875.97;5059408;28;45298;-77
2021/10/26 04:22:50;;;;;;;;;3.00;2.00;;;;;12.18;72.33;101874.19;5061512;28;58041;-77
2021/10/26 04:25:15;;;;;;;;;3.00;2.00;;;;;12.14;72.40;101876.72;5040639;28;45324;-77
2021/10/26 04:27:41;;;;;;;;;1.67;1.67;;;;;12.08;72.24;101864.25;5052718;28;45309;-77
2021/10/26 04:30:07;;;;;;;;;2.00;2.00;;;;;12.10;72.30;101880.19;5041678;28;54468;-77
2021/10/26 04:32:33;;;;;;;;;2.00;2.00;;;;;12.06;72.10;101882.75;5058769;28;46689;-77
2021/10/26 04:34:59;;;;;;;;;3.00;3.00;;;;;11.98;72.34;101879.03;5077802;28;45297;-77
2021/10/26 04:37:24;;;;;;;;;2.00;2.00;;;;;12.01;72.25;101880.88;5079172;28;45909;-77
2021/10/26 04:39:49;;;;;;;;;2.67;2.33;;;;;12.00;72.21;101887.94;5054852;28;45252;-77
2021/10/26 04:42:15;;;;;;;;;4.33;2.00;;;;;11.97;72.26;101892.25;5058564;28;46813;-77
2021/10/26 04:44:40;;;;;;;;;3.00;2.67;;;;;11.90;72.19;101885.94;5058003;28;56717;-77
2021/10/26 04:47:06;;;;;;;;;3.00;3.00;;;;;11.94;72.16;101905.44;5063164;28;45347;-77
2021/10/26 04:49:31;;;;;;;;;4.00;2.00;;;;;11.92;72.36;101907.13;5078611;28;48679;-77
2021/10/26 04:51:57;;;;;;;;;7.00;3.00;;;;;11.89;72.38;101889.44;5065849;28;46558;-77
2021/10/26 04:54:22;;;;;;;;;4.00;2.33;;;;;11.87;72.19;101892.91;5058179;28;45167;-77
2021/10/26 04:56:47;;;;;;;;;2.67;2.00;;;;;11.86;72.17;101899.06;5071341;28;50027;-77
2021/10/26 04:59:13;;;;;;;;;7.00;4.67;;;;;11.86;72.18;101901.72;5060552;28;45471;-76
2021/10/26 05:01:38;;;;;;;;;3.00;3.00;;;;;11.77;72.19;101895.31;5077922;28;60076;-77
2021/10/26 05:04:04;;;;;;;;;5.67;4.00;;;;;11.82;72.07;101902.50;5072742;28;45430;-77
2021/10/26 05:06:29;;;;;;;;;4.67;3.33;;;;;11.79;72.10;101901.53;5058582;28;45505;-77
2021/10/26 05:08:55;;;;;;;;;3.00;3.00;;;;;11.78;71.96;101904.16;5075332;28;45541;-77
2021/10/26 05:11:20;;;;;;;;;5.00;3.00;;;;;11.76;72.13;101901.44;5060297;28;45332;-76
2021/10/26 05:13:46;;;;;;;;;3.33;3.33;;;;;11.71;72.01;101894.25;5060115;28;46204;-77
2021/10/26 05:16:12;;;;;;;;;3.00;3.00;;;;;11.69;72.02;101890.69;5078427;28;45449;-77
2021/10/26 05:18:40;;;;;;;;;4.33;3.00;;;;;11.70;72.02;101896.03;5078499;28;45425;-77
2021/10/26 05:21:09;;;;;;;;;5.00;4.00;;;;;11.70;72.14;101903.06;5077936;28;46804;-77
2021/10/26 05:23:36;;;;;;;;;5.00;3.00;;;;;11.70;72.05;101911.00;5071393;28;45383;-77
2021/10/26 05:26:01;;;;;;;;;5.00;3.67;;;;;11.69;72.01;101909.22;5057804;28;45456;-77
2021/10/26 05:28:27;;;;;;;;;4.00;3.00;;;;;11.65;72.10;101907.34;5058158;28;45409;-77
2021/10/26 05:30:52;;;;;;;;;3.00;3.00;;;;;11.66;72.10;101917.06;5078068;28;45699;-77
2021/10/26 05:33:18;;;;;;;;;9.00;2.33;;;;;11.65;71.96;101921.47;5077410;28;46005;-77
2021/10/26 05:35:43;;;;;;;;;7.00;4.67;;;;;11.64;72.17;101916.16;5077821;28;45418;-77
2021/10/26 05:38:09;;;;;;;;;4.33;2.67;;;;;11.61;72.15;101922.28;5062262;28;48211;-76
2021/10/26 05:40:34;;;;;;;;;3.00;3.00;;;;;11.53;72.06;101915.91;5073852;28;53610;-76
2021/10/26 05:42:59;;;;;;;;;4.33;4.00;;;;;11.54;72.28;101912.38;5050455;28;50719;-77
2021/10/26 05:45:25;;;;;;;;;4.00;4.00;;;;;11.59;72.08;101928.38;5073308;28;45538;-76
2021/10/26 05:47:50;;;;;;;;;8.00;4.00;;;;;11.58;72.01;101923.94;5059412;28;49832;-76
2021/10/26 05:50:16;;;;;;;;;7.33;4.00;;;;;11.54;71.89;101923.84;5073726;28;46532;-76
2021/10/26 05:52:41;;;;;;;;;5.67;4.00;;;;;11.54;72.00;101929.16;5075160;28;52720;-77
2021/10/26 05:55:07;;;;;;;;;7.00;2.67;;;;;11.51;72.14;101930.84;5077557;28;45700;-76
2021/10/26 05:57:32;;;;;;;;;7.67;4.00;;;;;11.51;72.04;101938.78;5063917;28;45304;-75
2021/10/26 05:59:58;;;;;;;;;4.67;4.00;;;;;11.51;72.19;101939.66;5077543;28;46471;-75
2021/10/26 06:02:24;;;;;;;;;7.33;5.00;;;;;11.47;72.23;101931.63;5072313;28;45557;-76
2021/10/26 06:04:51;;;;;;;;;7.00;4.00;;;;;11.48;72.22;101950.16;5074738;28;45917;-77
2021/10/26 06:07:16;;;;;;;;;8.00;7.00;;;;;11.50;72.26;101953.75;5041829;28;45254;-77
2021/10/26 06:09:41;;;;;;;;;4.33;4.33;;;;;11.50;72.21;101951.13;5074306;28;51912;-78
2021/10/26 06:12:10;;;;;;;;;4.00;4.00;;;;;11.50;72.26;101945.81;5070820;28;45419;-76
2021/10/26 06:14:36;;;;;;;;;4.00;4.00;;;;;11.50;72.17;101961.69;5058690;28;45339;-77
2021/10/26 06:17:01;;;;;;;;;8.67;5.00;;;;;11.49;72.29;101962.53;5076683;28;45421;-77
2021/10/26 06:19:27;;;;;;;;;8.00;4.67;;;;;11.50;72.39;101966.06;5061418;28;45478;-76
2021/10/26 06:21:52;;;;;;;;;5.67;4.00;;;;;11.53;72.47;101963.50;5071995;28;45392;-77
2021/10/26 06:24:18;;;;;;;;;10.00;7.00;;;;;11.57;72.58;101965.38;5064116;28;51621;-77
2021/10/26 06:26:43;;;;;;;;;7.00;7.00;;;;;11.61;72.83;101975.19;5038558;28;45507;-77
2021/10/26 06:29:09;;;;;;;;;7.00;7.00;;;;;11.70;73.00;101967.47;5048583;28;50574;-76
2021/10/26 06:31:34;;;;;;;;;8.00;7.00;;;;;11.79;73.20;101977.38;5041217;28;49185;-76
2021/10/26 06:33:59;;;;;;;;;10.00;10.00;;;;;11.85;73.16;101971.38;5066396;28;48986;-77
2021/10/26 06:36:25;;;;;;;;;12.00;8.33;;;;;11.98;72.95;101982.28;5076803;28;45572;-77
2021/10/26 06:38:51;;;;;;;;;12.33;9.00;;;;;12.02;73.09;101970.00;5076836;28;46353;-79
2021/10/26 06:41:17;;;;;;;;;11.00;9.67;;;;;12.15;72.90;101976.50;5054883;28;45469;-76
2021/10/26 06:43:42;;;;;;;;;9.33;9.00;;;;;12.20;72.96;101981.03;5056563;28;45363;-79
2021/10/26 06:46:07;;;;;;;;;10.67;8.67;;;;;12.28;72.59;101989.16;5056498;28;45422;-78
2021/10/26 06:48:33;;;;;;;;;9.33;8.00;;;;;12.33;72.60;101990.16;5056292;28;50283;-77
2021/10/26 06:50:58;;;;;;;;;15.67;8.00;;;;;12.38;73.03;102001.75;5038050;28;52041;-76
2021/10/26 06:53:25;;;;;;;;;8.67;8.00;;;;;12.42;72.56;102002.72;5038309;28;45243;-79
2021/10/26 06:55:51;;;;;;;;;9.00;9.00;;;;;12.43;72.93;102001.84;5063400;28;45514;-77
2021/10/26 06:58:16;;;;;;;;;10.33;8.67;;;;;12.52;72.43;102013.53;5076353;28;45570;-76
2021/10/26 07:00:43;;;;;;;;;13.00;8.00;;;;;12.55;72.40;102010.94;5072432;28;45212;-76
2021/10/26 07:03:09;;;;;;;;;11.67;8.33;;;;;12.57;72.33;102019.84;5061371;28;45348;-77
2021/10/26 07:05:34;;;;;;;;;10.00;9.00;;;;;12.54;72.38;102005.63;5073990;28;45321;-76
2021/10/26 07:08:00;;;;;;;;;9.00;8.00;;;;;12.57;72.25;102005.69;5055848;27;46500;-76
2021/10/26 07:10:25;;;;;;;;;9.33;8.00;;;;;12.57;72.39;102005.69;5072680;27;58934;-77
2021/10/26 07:12:51;;;;;;;;;13.00;10.00;;;;;12.61;72.55;102023.44;5037467;28;55894;-77
2021/10/26 07:15:17;;;;;;;;;13.00;9.33;;;;;12.70;71.98;102043.94;5048769;28;45588;-78
2021/10/26 07:17:42;;;;;;;;;9.33;8.67;;;;;12.69;72.12;102043.06;5063161;28;46327;-76
2021/10/26 07:20:10;;;;;;;;;14.67;9.00;;;;;12.76;71.96;102044.97;5051954;28;45399;-76
2021/10/26 07:22:36;;;;;;;;;11.00;10.00;;;;;12.77;71.92;102043.22;5075957;28;45407;-77
2021/10/26 07:25:07;;;;;;;;;15.00;9.00;;;;;12.79;71.93;102049.44;5073787;27;45380;-73
2021/10/26 07:27:33;;;;;;;;;9.00;9.00;;;;;12.83;71.99;102057.47;5068533;28;45817;-77
2021/10/26 07:29:59;;;;;;;;;7.00;6.67;;;;;12.89;71.93;102062.03;5075015;28;45455;-76
2021/10/26 07:32:24;;;;;;;;;8.33;8.33;;;;;12.92;71.90;102071.81;5069645;28;45288;-75
2021/10/26 07:34:50;;;;;;;;;9.00;7.33;;;;;12.91;71.54;102062.97;5076930;28;45475;-76
2021/10/26 07:37:19;;;;;;;;;10.00;10.00;;;;;12.95;71.98;102067.47;5069429;28;51795;-75
2021/10/26 07:39:46;;;;;;;;;10.00;9.00;;;;;13.04;71.78;102072.94;5072157;28;45485;-75
2021/10/26 07:42:16;;;;;;;;;10.33;9.33;;;;;13.09;71.74;102073.94;5063615;28;45544;-75
2021/10/26 07:44:42;;;;;;;;;9.00;6.00;;;;;13.08;71.49;102068.59;5064854;28;45359;-76
2021/10/26 07:47:08;;;;;;;;;13.00;10.00;;;;;13.18;71.64;102075.00;5076793;28;45534;-76
2021/10/26 07:49:33;;;;;;;;;12.67;10.67;;;;;13.23;71.76;102074.25;5064797;28;45285;-76
2021/10/26 07:51:59;;;;;;;;;11.33;8.33;;;;;13.28;71.36;102088.50;5073659;28;45584;-76
2021/10/26 07:54:24;;;;;;;;;13.33;10.00;;;;;13.35;71.81;102094.81;5070604;28;45230;-76
2021/10/26 07:56:51;;;;;;;;;13.00;10.00;;;;;13.39;71.67;102098.44;5067696;28;60876;-75
2021/10/26 07:59:16;;;;;;;;;13.33;10.00;;;;;13.45;71.68;102102.09;5069903;28;45311;-77
2021/10/26 08:01:45;;;;;;;;;11.33;10.00;;;;;13.49;71.24;102106.59;5078775;28;45413;-76
2021/10/26 08:04:11;;;;;;;;;10.33;10.33;;;;;13.53;71.53;102103.16;5067931;28;45337;-76
2021/10/26 08:06:38;;;;;;;;;13.00;11.00;;;;;13.57;71.48;102102.31;5075191;28;46512;-75
2021/10/26 08:09:03;;;;;;;;;10.00;10.00;;;;;13.61;71.13;102088.25;5071500;27;45343;-78
2021/10/26 08:11:30;;;;;;;;;10.67;10.67;;;;;13.68;71.34;102091.91;5065282;28;52797;-76
2021/10/26 08:13:55;;;;;;;;;11.67;8.33;;;;;13.74;71.15;102085.81;5069178;28;45498;-76
2021/10/26 08:16:21;;;;;;;;;14.00;12.67;;;;;13.79;71.46;102097.41;5054928;28;56587;-77
2021/10/26 08:18:46;;;;;;;;;11.67;9.67;;;;;13.85;71.86;102092.25;5066288;28;45469;-76
2021/10/26 08:21:13;;;;;;;;;13.00;10.00;;;;;13.87;71.28;102094.03;5073008;28;49791;-77
2021/10/26 08:23:41;;;;;;;;;17.33;12.33;;;;;13.88;71.16;102085.19;5048940;28;45480;-77
2021/10/26 08:26:11;;;;;;;;;11.67;10.67;;;;;14.00;71.27;102095.13;5183412;22;47533;-76
2021/10/26 08:28:37;;;;;;;;;13.33;13.00;;;;;14.03;71.14;102089.88;5057990;28;45475;-76
2021/10/26 08:31:08;;;;;;;;;13.00;11.00;;;;;14.05;71.07;102080.19;5062855;28;45446;-76
2021/10/26 08:35:59;;;;;;;;;15.00;15.00;;;;;14.04;71.64;102083.72;5071409;28;45649;-77
2021/10/26 08:38:24;;;;;;;;;13.00;12.00;;;;;14.01;71.04;102077.44;5073193;28;45645;-77
2021/10/26 08:40:50;;;;;;;;;19.33;14.00;;;;;14.05;70.98;102096.13;4986914;28;50920;-77
2021/10/26 08:43:21;;;;;;;;;18.67;14.67;;;;;14.00;71.43;102088.94;5035459;28;45542;-76
2021/10/26 08:45:51;;;;;;;;;11.67;11.67;;;;;13.96;71.40;102101.28;4988753;28;48843;-76
2021/10/26 08:48:21;;;;;;;;;15.33;14.67;;;;;13.92;71.59;102095.91;5023204;28;45476;-77
2021/10/26 08:50:59;;;;;;;;;12.33;11.33;;;;;13.93;72.16;102100.31;5072220;28;45853;-76
2021/10/26 08:53:26;;;;;;;;;15.67;12.00;;;;;13.94;71.97;102099.47;5034844;28;45822;-78
2021/10/26 08:56:03;;;;;;;;;14.00;11.67;;;;;13.98;72.21;102096.88;5040525;28;45731;-77
2021/10/26 08:58:29;;;;;;;;;12.33;11.00;;;;;14.11;71.94;102097.97;5010668;28;45287;-76
2021/10/26 09:00:55;;;;;;;;;15.00;11.00;;;;;14.16;71.70;102090.97;4966686;28;46418;-82
2021/10/26 09:03:22;;;;;;;;;12.67;11.67;;;;;14.25;71.91;102099.09;5040876;28;45364;-81
2021/10/26 09:05:52;;;;;;;;;12.33;12.00;;;;;14.29;71.26;102097.41;4981979;28;47590;-81
2021/10/26 09:08:22;;;;;;;;;14.00;13.00;;;;;14.36;71.17;102096.63;4989490;28;45383;-84
2021/10/26 09:10:48;;;;;;;;;18.00;15.00;;;;;14.37;71.16;102103.72;4969973;28;45523;-84
2021/10/26 09:18:44;;;;;;;;;14.67;10.33;;;;;14.50;71.14;102095.13;4988705;28;45172;-84
2021/10/26 09:21:31;;;;;;;;;9.00;9.00;;;;;14.54;70.78;102083.66;4966299;28;45361;-84
2021/10/26 09:23:58;;;;;;;;;11.00;11.00;;;;;14.54;70.50;102085.41;5065579;28;45418;-82
2021/10/26 09:26:24;;;;;;;;;8.33;8.33;;;;;14.49;70.88;102082.69;5074945;28;45686;-82
2021/10/26 09:28:55;;;;;;;;;10.33;8.33;;;;;14.50;70.50;102078.28;4984993;28;45435;-81
2021/10/26 09:31:28;;;;;;;;;11.33;8.00;;;;;14.52;71.41;102088.03;4964291;28;45355;-84
2021/10/26 09:34:02;;;;;;;;;9.00;7.00;;;;;14.54;70.92;102096.94;4986263;28;45435;-81
2021/10/26 09:36:32;;;;;;;;;8.33;7.33;;;;;14.58;70.40;102087.25;5058433;28;46946;-80
2021/10/26 09:39:04;;;;;;;;;8.00;7.00;;;;;14.71;70.48;102083.00;5068419;28;45379;-81
2021/10/26 09:41:54;;;;;;;;;7.33;6.00;;;;;14.82;70.31;102074.31;5007535;28;45423;-81
2021/10/26 09:44:21;;;;;;;;;8.00;6.00;;;;;14.95;69.90;102078.00;5025616;28;45269;-81
2021/10/26 09:46:50;;;;;;;;;8.67;6.00;;;;;15.04;70.00;102072.81;5073135;28;47193;-81
2021/10/26 09:49:22;;;;;;;;;10.67;7.33;;;;;15.12;69.32;102070.22;5071780;28;45501;-82
2021/10/26 09:51:49;;;;;;;;;9.00;7.33;;;;;15.24;69.56;102074.81;5074374;28;45838;-82
2021/10/26 09:54:19;;;;;;;;;7.33;7.00;;;;;15.36;67.88;102086.50;4986817;28;45521;-81
2021/10/26 09:57:03;;;;;;;;;7.00;5.00;;;;;15.45;68.37;102083.06;5069728;28;46528;-81
2021/10/26 09:59:29;;;;;;;;;7.00;6.00;;;;;15.42;66.78;102083.00;5077711;27;45576;-80
2021/10/26 10:01:54;;;;;;;;;9.33;6.00;;;;;15.49;67.83;102092.84;4977536;28;45443;-80
2021/10/26 10:04:33;;;;;;;;;4.67;4.00;;;;;15.59;67.00;102088.50;4996773;28;45854;-80
2021/10/26 10:06:59;;;;;;;;;6.00;4.00;;;;;15.66;67.47;102088.63;4974269;28;46364;-80
2021/10/26 10:09:25;;;;;;;;;4.33;4.00;;;;;15.68;67.89;102084.22;5069317;28;45216;-80
2021/10/26 10:12:04;;;;;;;;;4.00;4.00;;;;;15.68;67.16;102084.22;5063663;28;49271;-80
2021/10/26 10:14:29;;;;;;;;;6.33;6.00;;;;;15.79;67.20;102086.97;4989593;28;45450;-81
2021/10/26 10:16:55;;;;;;;;;3.00;2.00;;;;;15.83;66.92;102088.81;5058408;28;48613;-80
2021/10/26 10:19:20;;;;;;;;;3.00;3.00;;;;;15.89;67.16;102091.50;4984517;28;45653;-81
2021/10/26 10:21:47;;;;;;;;;7.67;4.00;;;;;15.93;66.66;102092.44;4969912;28;45437;-81
2021/10/26 10:24:13;;;;;;;;;5.00;4.67;;;;;16.00;66.86;102091.63;4987407;28;45373;-81
2021/10/26 10:26:39;;;;;;;;;8.33;4.33;;;;;15.93;66.49;102095.13;4992900;28;46659;-80
2021/10/26 10:29:04;;;;;;;;;5.00;5.00;;;;;15.86;66.81;102093.25;4966002;28;45222;-81
2021/10/26 10:31:29;;;;;;;;;8.33;5.00;;;;;15.75;66.82;102100.25;5064682;28;52042;-80
2021/10/26 10:33:57;;;;;;;;;6.00;3.33;;;;;15.69;67.28;102096.63;5070789;28;45620;-81
2021/10/26 10:36:23;;;;;;;;;6.33;4.67;;;;;15.77;67.10;102109.16;5076597;28;46483;-79
2021/10/26 10:38:50;;;;;;;;;4.33;4.33;;;;;15.87;66.95;102111.00;4984677;28;45605;-79
2021/10/26 10:41:33;;;;;;;;;6.00;4.67;;;;;15.92;67.60;102102.19;4960160;28;45500;-81
2021/10/26 10:44:00;;;;;;;;;3.00;3.00;;;;;15.98;66.71;102090.72;4964999;28;45527;-79
2021/10/26 10:46:38;;;;;;;;;4.67;4.67;;;;;16.12;66.36;102106.81;5071439;28;46420;-80
2021/10/26 10:49:18;;;;;;;;;5.67;4.00;;;;;16.12;66.14;102102.38;5076446;28;45346;-79
2021/10/26 10:52:10;;;;;;;;;5.67;4.00;;;;;16.16;66.23;102089.97;5076628;28;45473;-79
2021/10/26 10:54:39;;;;;;;;;6.00;4.00;;;;;16.32;65.67;102102.53;4995972;28;45517;-80
2021/10/26 10:57:34;;;;;;;;;5.67;4.00;;;;;16.40;65.43;102099.91;5067019;28;45691;-80
2021/10/26 11:00:19;;;;;;;;;7.67;4.00;;;;;16.42;65.70;102106.16;5064101;28;45381;-79
2021/10/26 11:02:53;;;;;;;;;5.00;5.00;;;;;16.37;65.56;102103.47;5071554;28;45436;-81
2021/10/26 11:05:35;;;;;;;;;4.33;4.00;;;;;16.42;65.85;102106.16;5074294;28;45255;-81
2021/10/26 11:08:12;;;;;;;;;4.33;2.00;;;;;16.46;65.87;102099.97;5072441;28;45618;-80
2021/10/26 11:10:50;;;;;;;;;4.00;4.00;;;;;16.55;65.61;102101.81;4992961;28;45475;-79
2021/10/26 11:13:23;;;;;;;;;5.00;4.00;;;;;16.60;65.67;102098.28;5065082;28;45497;-80
2021/10/26 11:15:51;;;;;;;;;8.00;4.33;;;;;16.66;65.73;102095.66;5066654;28;45601;-79
2021/10/26 11:18:38;;;;;;;;;6.33;5.00;;;;;16.76;65.05;102097.53;5078364;28;47154;-79
2021/10/26 11:21:08;;;;;;;;;7.00;6.00;;;;;16.83;64.66;102094.88;5077766;28;45490;-79
2021/10/26 11:23:43;;;;;;;;;6.67;5.00;;;;;16.72;64.64;102071.75;5068261;28;45514;-77
2021/10/26 11:26:15;;;;;;;;;7.00;4.00;;;;;16.80;64.69;102081.56;5062367;28;45598;-78
2021/10/26 11:28:51;;;;;;;;;5.67;3.33;;;;;16.67;64.75;102059.19;5070053;28;47507;-78
2021/10/26 11:31:23;;;;;;;;;6.33;3.00;;;;;16.64;64.50;102069.88;5013482;28;45451;-80